Camellia — VRCP9 — position and weather

sailwx.info

Track history (hours):
 
Tides and Currents Weather Stations Pressure Air Temp Water Temp Dewpoint Dewpoint Depression Visibility Wind Speed Wind Dir Waves Ship Positions

Camellia

Last reported at 2015-Aug-28 10:30 UTC. Time now 2015-Aug-29 14:42 UTC.
Position N 41°02' E 029°00'.

Length 222 m; draft 8.9 m.

Type: Ship (hazmat cat C). MMSI: 477791900.

Date/timePositionNaut miles runAvg speedWind from/ knotsBaromVisibWave heightAir tempDewpointWater temp
2015-Aug-28 10:30N 41°02' E 029°00'1 0.2
2015-Aug-28 04:33N 41°00' E 029°00'4 4.1
2015-Aug-28 03:34N 40°57' E 028°59'1212.1
2015-Aug-28 02:33N 40°46' E 028°51'13 1.9
2015-Aug-27 19:30N 40°55' E 028°38'0 0.3
2015-Aug-27 18:32N 40°55' E 028°38'0 0.4
2015-Aug-27 17:24N 40°56' E 028°39'3 3.8
2015-Aug-27 16:33N 40°53' E 028°41'1515.1
2015-Aug-27 15:33N 40°44' E 028°57'1919.0
2015-Aug-27 14:33N 40°45' E 029°22'50612.2
2015-Aug-25 21:13N 35°58' E 020°31'1920.4
2015-Aug-25 20:17N 35°57' E 020°08'5919.4
2015-Aug-25 17:15N 35°55' E 018°55'1420.1
2015-Aug-25 16:33N 35°54' E 018°38'2120.7
2015-Aug-25 15:33N 35°54' E 018°12'4220.1
2015-Aug-25 13:26N 35°52' E 017°20'1820.2
2015-Aug-25 12:33N 35°52' E 016°58'2020.0
2015-Aug-25 11:33N 35°51' E 016°33'2020.3
2015-Aug-25 10:33N 35°50' E 016°08'2020.3
2015-Aug-25 09:33N 35°50' E 015°43'2120.3
2015-Aug-25 08:33N 35°49' E 015°18'2020.2
2015-Aug-25 07:33N 35°47' E 014°54'1716.9
2015-Aug-25 06:34N 35°49' E 014°33'1 0.5
2015-Aug-25 05:33N 35°49' E 014°32'0 0.0
2015-Aug-25 03:30N 35°49' E 014°32'0 0.0
2015-Aug-25 02:33N 35°49' E 014°32'0 0.0
2015-Aug-25 01:27N 35°49' E 014°32'0 0.0
2015-Aug-24 23:09N 35°49' E 014°32'0 0.0
2015-Aug-24 22:33N 35°49' E 014°32'0 0.0
2015-Aug-24 21:33N 35°49' E 014°32'0 0.0
2015-Aug-24 20:33N 35°49' E 014°32'0 0.0
2015-Aug-24 19:30N 35°49' E 014°32'0 0.0
2015-Aug-24 18:24N 35°49' E 014°32'0 0.0
2015-Aug-24 17:21N 35°49' E 014°32'0 0.0
2015-Aug-24 14:24N 35°49' E 014°32'0 0.0
2015-Aug-24 13:30N 35°49' E 014°32'0 0.0
2015-Aug-24 12:33N 35°49' E 014°32'0 0.0
2015-Aug-24 06:30N 35°49' E 014°32'0 0.0
2015-Aug-24 05:33N 35°49' E 014°32'0 0.0
2015-Aug-24 04:30N 35°49' E 014°32'0 0.0
2015-Aug-24 03:33N 35°49' E 014°32'0 0.0
2015-Aug-24 02:33N 35°49' E 014°32'0 0.0
2015-Aug-24 01:32N 35°49' E 014°32'0 0.0
2015-Aug-24 00:29N 35°49' E 014°32'0 0.0
2015-Aug-23 23:32N 35°49' E 014°32'0 0.0
2015-Aug-23 22:17N 35°49' E 014°32'0 0.5
2015-Aug-23 21:33N 35°49' E 014°32'7 6.0
2015-Aug-23 20:26N 35°45' E 014°27'1315.1
2015-Aug-23 19:33N 35°51' E 014°12'1616.3
2015-Aug-23 18:33N 35°60' E 013°55'1716.3
2015-Aug-23 17:32N 36°09' E 013°38'1515.6
2015-Aug-23 16:33N 36°17' E 013°22'1616.0
2015-Aug-23 15:33N 36°26' E 013°05'1616.1
2015-Aug-23 14:33N 36°34' E 012°48'1616.3
2015-Aug-23 13:33N 36°43' E 012°31'1716.6
2015-Aug-23 12:32N 36°52' E 012°13'1816.4
2015-Aug-23 11:25N 37°02' E 011°54'1416.2
2015-Aug-23 10:33N 37°10' E 011°40'1616.2
2015-Aug-23 09:33N 37°19' E 011°23'15016.2
2015-Aug-23 00:16N 37°16' E 008°14'1316.2
2015-Aug-22 23:26N 37°17' E 007°57'1416.3
2015-Aug-22 22:33N 37°17' E 007°39'7116.5
2015-Aug-22 18:14N 37°18' E 006°10'1116.5
2015-Aug-22 17:33N 37°18' E 005°55'1716.6
2015-Aug-22 16:33N 37°19' E 005°35'1716.7
2015-Aug-22 15:33N 37°19' E 005°13'1616.0
2015-Aug-22 14:31N 37°19' E 004°53'1616.3
2015-Aug-22 13:33N 37°19' E 004°33'2016.6
2015-Aug-22 12:20N 37°20' E 004°07'1316.2
2015-Aug-22 11:33N 37°18' E 003°52'1916.3
2015-Aug-22 10:23N 37°14' E 003°28'1416.4
2015-Aug-22 09:33N 37°11' E 003°12'1916.4
2015-Aug-22 08:24N 37°06' E 002°49'1416.1
2015-Aug-22 07:33N 37°03' E 002°32'1716.5
2015-Aug-22 06:32N 36°59' E 002°12'1616.6
2015-Aug-22 05:33N 36°55' E 001°52'1616.1
2015-Aug-22 04:33N 36°51' E 001°32'1515.5
2015-Aug-22 03:33N 36°48' E 001°14'1616.1
2015-Aug-22 02:33N 36°44' E 000°54'1716.6
2015-Aug-22 01:33N 36°40' E 000°34'1716.9
2015-Aug-22 00:33N 36°36' E 000°14'1916.8
2015-Aug-21 23:27N 36°32' W 000°09'1416.0
2015-Aug-21 22:33N 36°28' W 000°26'1616.2
2015-Aug-21 21:33N 36°24' W 000°46'1716.3
2015-Aug-21 20:32N 36°21' W 001°06'4916.3
2015-Aug-21 17:33N 36°10' W 002°05'1616.3
2015-Aug-21 16:33N 36°09' W 002°25'321 8.0
2015-Aug-20 00:33N 36°30' W 009°02'1615.7
2015-Aug-19 23:34N 36°36' W 009°20'1716.4
2015-Aug-19 22:33N 36°49' W 009°33'1716.7
2015-Aug-19 21:33N 37°05' W 009°38'1616.3
2015-Aug-19 20:33N 37°21' W 009°43'1716.5
2015-Aug-19 19:33N 37°37' W 009°48'1716.8
2015-Aug-19 18:34N 37°53' W 009°52'1716.5
2015-Aug-19 17:33N 38°09' W 009°57'1616.4
2015-Aug-19 16:34N 38°25' W 010°02'1717.3
2015-Aug-19 15:33N 38°42' W 010°06'1616.4
2015-Aug-19 14:33N 38°59' W 010°06'1615.9
2015-Aug-19 13:33N 39°14' W 010°06'  
Track history (hours):
 
Tides and Currents Weather Stations Pressure Air Temp Water Temp Dewpoint Dewpoint Depression Visibility Wind Speed Wind Dir Waves Ship Positions

Camellia

Last reported at 2015-Aug-28 10:30 UTC. Time now 2015-Aug-29 14:42 UTC.
Position N 41°02' E 029°00'.

Length 222 m; draft 8.9 m.

Type: Ship (hazmat cat C). MMSI: 477791900.

Date/timePositionNaut miles runAvg speedWind from/ knotsBaromVisibWave heightAir tempDewpointWater temp
2015-Aug-28 10:30N 41°02' E 029°00'1 0.2
2015-Aug-28 04:33N 41°00' E 029°00'4 4.1
2015-Aug-28 03:34N 40°57' E 028°59'1212.1
2015-Aug-28 02:33N 40°46' E 028°51'13 1.9
2015-Aug-27 19:30N 40°55' E 028°38'0 0.3
2015-Aug-27 18:32N 40°55' E 028°38'0 0.4
2015-Aug-27 17:24N 40°56' E 028°39'3 3.8
2015-Aug-27 16:33N 40°53' E 028°41'1515.1
2015-Aug-27 15:33N 40°44' E 028°57'1919.0
2015-Aug-27 14:33N 40°45' E 029°22'50612.2
2015-Aug-25 21:13N 35°58' E 020°31'1920.4
2015-Aug-25 20:17N 35°57' E 020°08'5919.4
2015-Aug-25 17:15N 35°55' E 018°55'1420.1
2015-Aug-25 16:33N 35°54' E 018°38'2120.7
2015-Aug-25 15:33N 35°54' E 018°12'4220.1
2015-Aug-25 13:26N 35°52' E 017°20'1820.2
2015-Aug-25 12:33N 35°52' E 016°58'2020.0
2015-Aug-25 11:33N 35°51' E 016°33'2020.3
2015-Aug-25 10:33N 35°50' E 016°08'2020.3
2015-Aug-25 09:33N 35°50' E 015°43'2120.3
2015-Aug-25 08:33N 35°49' E 015°18'2020.2
2015-Aug-25 07:33N 35°47' E 014°54'1716.9
2015-Aug-25 06:34N 35°49' E 014°33'1 0.5
2015-Aug-25 05:33N 35°49' E 014°32'0 0.0
2015-Aug-25 03:30N 35°49' E 014°32'0 0.0
2015-Aug-25 02:33N 35°49' E 014°32'0 0.0
2015-Aug-25 01:27N 35°49' E 014°32'0 0.0
2015-Aug-24 23:09N 35°49' E 014°32'0 0.0
2015-Aug-24 22:33N 35°49' E 014°32'0 0.0
2015-Aug-24 21:33N 35°49' E 014°32'0 0.0
2015-Aug-24 20:33N 35°49' E 014°32'0 0.0
2015-Aug-24 19:30N 35°49' E 014°32'0 0.0
2015-Aug-24 18:24N 35°49' E 014°32'0 0.0
2015-Aug-24 17:21N 35°49' E 014°32'0 0.0
2015-Aug-24 14:24N 35°49' E 014°32'0 0.0
2015-Aug-24 13:30N 35°49' E 014°32'0 0.0
2015-Aug-24 12:33N 35°49' E 014°32'0 0.0
2015-Aug-24 06:30N 35°49' E 014°32'0 0.0
2015-Aug-24 05:33N 35°49' E 014°32'0 0.0
2015-Aug-24 04:30N 35°49' E 014°32'0 0.0
2015-Aug-24 03:33N 35°49' E 014°32'0 0.0
2015-Aug-24 02:33N 35°49' E 014°32'0 0.0
2015-Aug-24 01:32N 35°49' E 014°32'0 0.0
2015-Aug-24 00:29N 35°49' E 014°32'0 0.0
2015-Aug-23 23:32N 35°49' E 014°32'0 0.0
2015-Aug-23 22:17N 35°49' E 014°32'0 0.5
2015-Aug-23 21:33N 35°49' E 014°32'7 6.0
2015-Aug-23 20:26N 35°45' E 014°27'1315.1
2015-Aug-23 19:33N 35°51' E 014°12'1616.3
2015-Aug-23 18:33N 35°60' E 013°55'1716.3
2015-Aug-23 17:32N 36°09' E 013°38'1515.6
2015-Aug-23 16:33N 36°17' E 013°22'1616.0
2015-Aug-23 15:33N 36°26' E 013°05'1616.1
2015-Aug-23 14:33N 36°34' E 012°48'1616.3
2015-Aug-23 13:33N 36°43' E 012°31'1716.6
2015-Aug-23 12:32N 36°52' E 012°13'1816.4
2015-Aug-23 11:25N 37°02' E 011°54'1416.2
2015-Aug-23 10:33N 37°10' E 011°40'1616.2
2015-Aug-23 09:33N 37°19' E 011°23'15016.2
2015-Aug-23 00:16N 37°16' E 008°14'1316.2
2015-Aug-22 23:26N 37°17' E 007°57'1416.3
2015-Aug-22 22:33N 37°17' E 007°39'7116.5
2015-Aug-22 18:14N 37°18' E 006°10'1116.5
2015-Aug-22 17:33N 37°18' E 005°55'1716.6
2015-Aug-22 16:33N 37°19' E 005°35'1716.7
2015-Aug-22 15:33N 37°19' E 005°13'1616.0
2015-Aug-22 14:31N 37°19' E 004°53'1616.3
2015-Aug-22 13:33N 37°19' E 004°33'2016.6
2015-Aug-22 12:20N 37°20' E 004°07'1316.2
2015-Aug-22 11:33N 37°18' E 003°52'1916.3
2015-Aug-22 10:23N 37°14' E 003°28'1416.4
2015-Aug-22 09:33N 37°11' E 003°12'1916.4
2015-Aug-22 08:24N 37°06' E 002°49'1416.1
2015-Aug-22 07:33N 37°03' E 002°32'1716.5
2015-Aug-22 06:32N 36°59' E 002°12'1616.6
2015-Aug-22 05:33N 36°55' E 001°52'1616.1
2015-Aug-22 04:33N 36°51' E 001°32'1515.5
2015-Aug-22 03:33N 36°48' E 001°14'1616.1
2015-Aug-22 02:33N 36°44' E 000°54'1716.6
2015-Aug-22 01:33N 36°40' E 000°34'1716.9
2015-Aug-22 00:33N 36°36' E 000°14'1916.8
2015-Aug-21 23:27N 36°32' W 000°09'1416.0
2015-Aug-21 22:33N 36°28' W 000°26'1616.2
2015-Aug-21 21:33N 36°24' W 000°46'1716.3
2015-Aug-21 20:32N 36°21' W 001°06'4916.3
2015-Aug-21 17:33N 36°10' W 002°05'1616.3
2015-Aug-21 16:33N 36°09' W 002°25'321 8.0
2015-Aug-20 00:33N 36°30' W 009°02'1615.7
2015-Aug-19 23:34N 36°36' W 009°20'1716.4
2015-Aug-19 22:33N 36°49' W 009°33'1716.7
2015-Aug-19 21:33N 37°05' W 009°38'1616.3
2015-Aug-19 20:33N 37°21' W 009°43'1716.5
2015-Aug-19 19:33N 37°37' W 009°48'1716.8
2015-Aug-19 18:34N 37°53' W 009°52'1716.5
2015-Aug-19 17:33N 38°09' W 009°57'1616.4
2015-Aug-19 16:34N 38°25' W 010°02'1717.3
2015-Aug-19 15:33N 38°42' W 010°06'1616.4
2015-Aug-19 14:33N 38°59' W 010°06'1615.9
2015-Aug-19 13:33N 39°14' W 010°06'  

Dump ship's entire track history